sensor_id;sensor_type;location;lat;lon;timestamp;P1;durP1;ratioP1;P2;durP2;ratioP2
54515;SDS011;40422;45.892;4.738;2023-03-01T04:00:22;16.30;;;7.63;;
54515;SDS011;40422;45.892;4.738;2023-03-01T04:02:49;18.83;;;9.68;;
54515;SDS011;40422;45.892;4.738;2023-03-01T04:05:16;17.42;;;9.82;;
54515;SDS011;40422;45.892;4.738;2023-03-01T04:07:43;19.50;;;10.40;;
54515;SDS011;40422;45.892;4.738;2023-03-01T04:10:16;18.17;;;9.85;;
54515;SDS011;40422;45.892;4.738;2023-03-01T04:12:43;16.33;;;8.10;;
54515;SDS011;40422;45.892;4.738;2023-03-01T04:15:09;16.83;;;8.18;;
54515;SDS011;40422;45.892;4.738;2023-03-01T04:17:42;16.25;;;7.68;;
54515;SDS011;40422;45.892;4.738;2023-03-01T04:20:11;17.25;;;8.50;;
54515;SDS011;40422;45.892;4.738;2023-03-01T04:22:39;17.95;;;8.77;;
54515;SDS011;40422;45.892;4.738;2023-03-01T04:25:05;19.50;;;10.18;;
54515;SDS011;40422;45.892;4.738;2023-03-01T04:27:33;23.73;;;10.57;;
54515;SDS011;40422;45.892;4.738;2023-03-01T04:29:59;21.33;;;9.32;;
54515;SDS011;40422;45.892;4.738;2023-03-01T04:32:25;19.52;;;9.70;;
54515;SDS011;40422;45.892;4.738;2023-03-01T04:34:50;21.23;;;9.05;;
54515;SDS011;40422;45.892;4.738;2023-03-01T04:37:16;17.67;;;9.55;;
54515;SDS011;40422;45.892;4.738;2023-03-01T04:39:41;18.00;;;8.50;;
54515;SDS011;40422;45.892;4.738;2023-03-01T04:42:10;15.93;;;7.43;;
54515;SDS011;40422;45.892;4.738;2023-03-01T04:44:41;23.10;;;10.40;;
54515;SDS011;40422;45.892;4.738;2023-03-01T04:47:07;16.02;;;7.75;;
54515;SDS011;40422;45.892;4.738;2023-03-01T04:49:33;17.63;;;8.25;;
54515;SDS011;40422;45.892;4.738;2023-03-01T04:51:59;17.25;;;8.15;;
54515;SDS011;40422;45.892;4.738;2023-03-01T04:54:31;18.40;;;9.25;;
54515;SDS011;40422;45.892;4.738;2023-03-01T04:57:01;17.05;;;8.38;;
54515;SDS011;40422;45.892;4.738;2023-03-01T04:59:28;16.80;;;9.05;;
54515;SDS011;40422;45.892;4.738;2023-03-01T05:01:54;18.42;;;9.73;;
54515;SDS011;40422;45.892;4.738;2023-03-01T05:04:21;20.88;;;9.85;;
54515;SDS011;40422;45.892;4.738;2023-03-01T05:06:47;20.50;;;9.75;;
54515;SDS011;40422;45.892;4.738;2023-03-01T05:09:13;20.63;;;9.73;;
54515;SDS011;40422;45.892;4.738;2023-03-01T05:11:39;19.67;;;9.65;;
54515;SDS011;40422;45.892;4.738;2023-03-01T05:14:05;20.65;;;9.98;;
54515;SDS011;40422;45.892;4.738;2023-03-01T05:16:32;18.30;;;10.57;;
54515;SDS011;40422;45.892;4.738;2023-03-01T05:18:59;19.63;;;9.57;;
54515;SDS011;40422;45.892;4.738;2023-03-01T05:21:25;18.40;;;9.85;;
54515;SDS011;40422;45.892;4.738;2023-03-01T05:23:51;15.45;;;8.07;;
54515;SDS011;40422;45.892;4.738;2023-03-01T05:26:17;16.73;;;9.20;;
54515;SDS011;40422;45.892;4.738;2023-03-01T05:28:53;13.50;;;7.38;;
54515;SDS011;40422;45.892;4.738;2023-03-01T05:31:23;20.60;;;9.48;;
54515;SDS011;40422;45.892;4.738;2023-03-01T05:33:48;21.27;;;9.98;;
54515;SDS011;40422;45.892;4.738;2023-03-01T05:36:14;18.67;;;10.48;;
54515;SDS011;40422;45.892;4.738;2023-03-01T05:38:40;17.55;;;8.98;;
54515;SDS011;40422;45.892;4.738;2023-03-01T05:41:05;19.77;;;10.55;;
54515;SDS011;40422;45.892;4.738;2023-03-01T05:43:39;19.95;;;10.05;;
54515;SDS011;40422;45.892;4.738;2023-03-01T05:46:08;20.67;;;10.50;;
54515;SDS011;40422;45.892;4.738;2023-03-01T05:48:37;20.13;;;11.43;;
54515;SDS011;40422;45.892;4.738;2023-03-01T05:51:03;22.45;;;11.45;;
54515;SDS011;40422;45.892;4.738;2023-03-01T05:53:29;22.48;;;10.57;;
54515;SDS011;40422;45.892;4.738;2023-03-01T05:55:55;22.48;;;10.75;;
54515;SDS011;40422;45.892;4.738;2023-03-01T05:58:20;18.55;;;9.07;;
54515;SDS011;40422;45.892;4.738;2023-03-01T06:00:47;23.38;;;10.52;;
54515;SDS011;40422;45.892;4.738;2023-03-01T06:03:14;22.45;;;11.60;;
54515;SDS011;40422;45.892;4.738;2023-03-01T06:05:41;19.90;;;10.90;;
54515;SDS011;40422;45.892;4.738;2023-03-01T06:08:06;21.60;;;11.60;;
54515;SDS011;40422;45.892;4.738;2023-03-01T06:10:34;19.80;;;10.75;;
54515;SDS011;40422;45.892;4.738;2023-03-01T06:12:59;17.92;;;8.75;;
54515;SDS011;40422;45.892;4.738;2023-03-01T06:15:25;22.95;;;11.13;;
54515;SDS011;40422;45.892;4.738;2023-03-01T06:17:51;25.30;;;10.70;;
54515;SDS011;40422;45.892;4.738;2023-03-01T06:20:20;19.67;;;10.38;;
54515;SDS011;40422;45.892;4.738;2023-03-01T06:22:47;18.52;;;9.23;;
54515;SDS011;40422;45.892;4.738;2023-03-01T06:25:15;24.88;;;11.93;;
54515;SDS011;40422;45.892;4.738;2023-03-01T06:27:43;18.05;;;9.70;;
54515;SDS011;40422;45.892;4.738;2023-03-01T06:30:09;17.52;;;9.73;;
54515;SDS011;40422;45.892;4.738;2023-03-01T06:32:37;21.67;;;10.27;;
54515;SDS011;40422;45.892;4.738;2023-03-01T06:35:03;22.25;;;10.88;;
54515;SDS011;40422;45.892;4.738;2023-03-01T06:37:30;21.13;;;11.20;;
54515;SDS011;40422;45.892;4.738;2023-03-01T06:39:55;19.73;;;9.25;;
54515;SDS011;40422;45.892;4.738;2023-03-01T06:42:21;20.25;;;10.45;;
54515;SDS011;40422;45.892;4.738;2023-03-01T06:44:47;21.20;;;10.85;;
54515;SDS011;40422;45.892;4.738;2023-03-01T06:47:12;19.85;;;10.10;;
54515;SDS011;40422;45.892;4.738;2023-03-01T06:49:38;19.60;;;9.90;;
54515;SDS011;40422;45.892;4.738;2023-03-01T06:52:03;21.48;;;10.25;;
54515;SDS011;40422;45.892;4.738;2023-03-01T06:54:29;20.23;;;10.10;;
54515;SDS011;40422;45.892;4.738;2023-03-01T06:56:54;21.80;;;11.10;;
54515;SDS011;40422;45.892;4.738;2023-03-01T06:59:20;20.17;;;10.63;;
54515;SDS011;40422;45.892;4.738;2023-03-01T07:01:46;20.20;;;9.85;;
54515;SDS011;40422;45.892;4.738;2023-03-01T07:04:12;20.05;;;11.40;;
54515;SDS011;40422;45.892;4.738;2023-03-01T07:06:38;21.13;;;11.55;;
54515;SDS011;40422;45.892;4.738;2023-03-01T07:09:03;22.00;;;11.20;;
54515;SDS011;40422;45.892;4.738;2023-03-01T07:11:29;22.17;;;10.98;;
54515;SDS011;40422;45.892;4.738;2023-03-01T07:13:54;21.10;;;11.15;;
54515;SDS011;40422;45.892;4.738;2023-03-01T07:16:20;20.23;;;10.88;;
54515;SDS011;40422;45.892;4.738;2023-03-01T07:18:46;22.55;;;11.85;;
54515;SDS011;40422;45.892;4.738;2023-03-01T07:21:12;18.65;;;10.07;;
54515;SDS011;40422;45.892;4.738;2023-03-01T07:23:39;20.02;;;10.13;;
54515;SDS011;40422;45.892;4.738;2023-03-01T07:26:06;21.63;;;11.07;;
54515;SDS011;40422;45.892;4.738;2023-03-01T07:28:31;21.40;;;11.73;;
54515;SDS011;40422;45.892;4.738;2023-03-01T07:31:04;22.25;;;11.63;;
54515;SDS011;40422;45.892;4.738;2023-03-01T07:33:30;19.13;;;10.77;;
54515;SDS011;40422;45.892;4.738;2023-03-01T07:35:57;21.48;;;12.10;;
54515;SDS011;40422;45.892;4.738;2023-03-01T07:38:24;21.05;;;11.63;;
54515;SDS011;40422;45.892;4.738;2023-03-01T07:40:50;22.10;;;11.50;;
54515;SDS011;40422;45.892;4.738;2023-03-01T07:43:15;22.23;;;11.57;;
54515;SDS011;40422;45.892;4.738;2023-03-01T07:45:41;22.40;;;11.98;;
54515;SDS011;40422;45.892;4.738;2023-03-01T07:48:06;28.02;;;12.93;;
54515;SDS011;40422;45.892;4.738;2023-03-01T07:50:32;25.63;;;12.82;;
54515;SDS011;40422;45.892;4.738;2023-03-01T07:52:57;20.92;;;11.85;;
54515;SDS011;40422;45.892;4.738;2023-03-01T07:55:23;24.52;;;11.93;;
54515;SDS011;40422;45.892;4.738;2023-03-01T07:57:49;20.40;;;10.82;;
54515;SDS011;40422;45.892;4.738;2023-03-01T08:00:14;24.83;;;12.60;;
54515;SDS011;40422;45.892;4.738;2023-03-01T08:02:40;25.52;;;11.82;;
54515;SDS011;40422;45.892;4.738;2023-03-01T08:05:07;22.73;;;11.43;;
54515;SDS011;40422;45.892;4.738;2023-03-01T08:07:34;20.95;;;11.55;;
54515;SDS011;40422;45.892;4.738;2023-03-01T08:09:59;23.30;;;11.65;;
54515;SDS011;40422;45.892;4.738;2023-03-01T08:12:25;20.15;;;11.85;;
54515;SDS011;40422;45.892;4.738;2023-03-01T08:14:52;22.85;;;12.57;;
54515;SDS011;40422;45.892;4.738;2023-03-01T08:17:18;22.50;;;13.18;;
54515;SDS011;40422;45.892;4.738;2023-03-01T08:19:44;27.25;;;13.23;;
54515;SDS011;40422;45.892;4.738;2023-03-01T08:22:10;22.52;;;12.35;;
54515;SDS011;40422;45.892;4.738;2023-03-01T08:24:35;24.48;;;13.98;;
54515;SDS011;40422;45.892;4.738;2023-03-01T08:27:01;23.10;;;12.82;;
54515;SDS011;40422;45.892;4.738;2023-03-01T08:29:27;24.05;;;12.55;;
54515;SDS011;40422;45.892;4.738;2023-03-01T08:31:55;23.50;;;12.73;;
54515;SDS011;40422;45.892;4.738;2023-03-01T08:34:21;23.20;;;12.68;;
54515;SDS011;40422;45.892;4.738;2023-03-01T08:36:46;22.38;;;13.02;;
54515;SDS011;40422;45.892;4.738;2023-03-01T08:39:14;23.83;;;13.00;;
54515;SDS011;40422;45.892;4.738;2023-03-01T08:41:43;32.70;;;13.23;;
54515;SDS011;40422;45.892;4.738;2023-03-01T08:44:09;22.17;;;12.60;;
54515;SDS011;40422;45.892;4.738;2023-03-01T08:46:39;22.10;;;13.13;;
54515;SDS011;40422;45.892;4.738;2023-03-01T08:49:06;30.00;;;13.73;;
54515;SDS011;40422;45.892;4.738;2023-03-01T08:51:34;24.83;;;13.02;;
54515;SDS011;40422;45.892;4.738;2023-03-01T08:54:09;20.58;;;11.70;;
54515;SDS011;40422;45.892;4.738;2023-03-01T08:56:38;25.23;;;13.30;;
54515;SDS011;40422;45.892;4.738;2023-03-01T08:59:04;21.13;;;12.23;;
54515;SDS011;40422;45.892;4.738;2023-03-01T09:01:29;24.50;;;12.57;;
54515;SDS011;40422;45.892;4.738;2023-03-01T09:03:55;23.92;;;12.95;;
54515;SDS011;40422;45.892;4.738;2023-03-01T09:06:21;21.80;;;12.93;;
54515;SDS011;40422;45.892;4.738;2023-03-01T09:08:47;23.98;;;13.25;;
54515;SDS011;40422;45.892;4.738;2023-03-01T09:11:18;21.58;;;12.75;;
54515;SDS011;40422;45.892;4.738;2023-03-01T09:13:45;26.45;;;14.52;;
54515;SDS011;40422;45.892;4.738;2023-03-01T09:16:13;21.95;;;13.98;;
54515;SDS011;40422;45.892;4.738;2023-03-01T09:18:40;25.75;;;14.68;;
54515;SDS011;40422;45.892;4.738;2023-03-01T09:21:13;33.20;;;17.15;;
54515;SDS011;40422;45.892;4.738;2023-03-01T09:23:40;24.58;;;13.57;;
54515;SDS011;40422;45.892;4.738;2023-03-01T09:26:10;21.77;;;13.48;;
54515;SDS011;40422;45.892;4.738;2023-03-01T09:28:37;26.42;;;14.93;;
54515;SDS011;40422;45.892;4.738;2023-03-01T09:31:03;23.65;;;14.85;;
54515;SDS011;40422;45.892;4.738;2023-03-01T09:33:30;20.63;;;11.88;;
54515;SDS011;40422;45.892;4.738;2023-03-01T09:36:00;23.25;;;12.93;;
54515;SDS011;40422;45.892;4.738;2023-03-01T09:38:30;24.55;;;15.88;;
54515;SDS011;40422;45.892;4.738;2023-03-01T09:40:56;21.92;;;12.68;;
54515;SDS011;40422;45.892;4.738;2023-03-01T09:45:58;21.67;;;12.75;;
54515;SDS011;40422;45.892;4.738;2023-03-01T09:48:28;20.80;;;13.43;;
54515;SDS011;40422;45.892;4.738;2023-03-01T09:51:07;21.58;;;11.27;;
54515;SDS011;40422;45.892;4.738;2023-03-01T09:53:38;21.63;;;11.48;;
54515;SDS011;40422;45.892;4.738;2023-03-01T09:56:05;19.85;;;13.63;;
54515;SDS011;40422;45.892;4.738;2023-03-01T10:09:45;27.98;;;16.92;;
54515;SDS011;40422;45.892;4.738;2023-03-01T10:12:13;22.88;;;15.13;;
54515;SDS011;40422;45.892;4.738;2023-03-01T10:14:54;23.73;;;15.27;;
54515;SDS011;40422;45.892;4.738;2023-03-01T10:17:33;23.95;;;14.13;;
54515;SDS011;40422;45.892;4.738;2023-03-01T10:20:18;23.92;;;14.38;;
54515;SDS011;40422;45.892;4.738;2023-03-01T10:22:48;21.40;;;14.70;;
54515;SDS011;40422;45.892;4.738;2023-03-01T10:30:56;22.08;;;14.75;;
54515;SDS011;40422;45.892;4.738;2023-03-01T10:33:27;20.35;;;14.10;;
54515;SDS011;40422;45.892;4.738;2023-03-01T10:35:56;21.05;;;14.45;;
54515;SDS011;40422;45.892;4.738;2023-03-01T10:38:22;22.27;;;13.77;;
54515;SDS011;40422;45.892;4.738;2023-03-01T10:40:57;20.83;;;13.43;;
54515;SDS011;40422;45.892;4.738;2023-03-01T10:43:43;24.98;;;15.30;;
54515;SDS011;40422;45.892;4.738;2023-03-01T10:46:25;22.08;;;14.40;;
54515;SDS011;40422;45.892;4.738;2023-03-01T10:51:47;20.13;;;13.82;;
54515;SDS011;40422;45.892;4.738;2023-03-01T10:54:17;24.52;;;15.00;;
54515;SDS011;40422;45.892;4.738;2023-03-01T10:56:54;23.55;;;15.23;;
54515;SDS011;40422;45.892;4.738;2023-03-01T11:04:44;22.33;;;14.63;;
54515;SDS011;40422;45.892;4.738;2023-03-01T11:07:25;26.67;;;16.02;;
54515;SDS011;40422;45.892;4.738;2023-03-01T11:09:51;21.77;;;12.75;;
54515;SDS011;40422;45.892;4.738;2023-03-01T11:12:17;24.75;;;14.10;;
54515;SDS011;40422;45.892;4.738;2023-03-01T11:14:46;23.08;;;13.95;;
54515;SDS011;40422;45.892;4.738;2023-03-01T11:19:59;22.13;;;13.98;;
54515;SDS011;40422;45.892;4.738;2023-03-01T11:22:37;19.80;;;12.45;;
54515;SDS011;40422;45.892;4.738;2023-03-01T11:25:13;20.00;;;12.65;;
54515;SDS011;40422;45.892;4.738;2023-03-01T11:27:40;25.10;;;15.98;;
54515;SDS011;40422;45.892;4.738;2023-03-01T11:32:45;20.60;;;11.23;;
54515;SDS011;40422;45.892;4.738;2023-03-01T11:35:20;22.63;;;13.23;;
54515;SDS011;40422;45.892;4.738;2023-03-01T11:37:55;20.92;;;13.25;;
54515;SDS011;40422;45.892;4.738;2023-03-01T11:40:32;21.52;;;14.68;;
54515;SDS011;40422;45.892;4.738;2023-03-01T11:48:24;27.27;;;15.48;;
54515;SDS011;40422;45.892;4.738;2023-03-01T11:51:13;24.67;;;15.30;;
54515;SDS011;40422;45.892;4.738;2023-03-01T11:56:52;25.50;;;16.38;;
54515;SDS011;40422;45.892;4.738;2023-03-01T11:59:47;23.65;;;14.75;;
54515;SDS011;40422;45.892;4.738;2023-03-01T12:04:59;131.70;;;22.92;;
54515;SDS011;40422;45.892;4.738;2023-03-01T12:07:57;23.77;;;14.80;;
54515;SDS011;40422;45.892;4.738;2023-03-01T12:10:57;21.80;;;14.05;;
54515;SDS011;40422;45.892;4.738;2023-03-01T12:13:46;22.17;;;12.75;;
54515;SDS011;40422;45.892;4.738;2023-03-01T12:16:38;25.38;;;15.80;;
54515;SDS011;40422;45.892;4.738;2023-03-01T12:27:31;24.42;;;14.80;;
54515;SDS011;40422;45.892;4.738;2023-03-01T12:30:25;21.67;;;13.80;;
54515;SDS011;40422;45.892;4.738;2023-03-01T12:33:26;25.73;;;15.93;;
54515;SDS011;40422;45.892;4.738;2023-03-01T12:36:17;28.48;;;17.33;;
54515;SDS011;40422;45.892;4.738;2023-03-01T12:38:59;22.52;;;14.57;;
54515;SDS011;40422;45.892;4.738;2023-03-01T12:41:43;28.13;;;17.03;;
54515;SDS011;40422;45.892;4.738;2023-03-01T12:49:39;23.02;;;14.20;;
54515;SDS011;40422;45.892;4.738;2023-03-01T12:54:40;24.92;;;15.35;;
54515;SDS011;40422;45.892;4.738;2023-03-01T12:57:14;27.88;;;15.10;;
54515;SDS011;40422;45.892;4.738;2023-03-01T13:02:38;20.30;;;12.80;;
54515;SDS011;40422;45.892;4.738;2023-03-01T13:05:24;24.17;;;15.05;;
54515;SDS011;40422;45.892;4.738;2023-03-01T13:10:52;27.08;;;15.93;;
54515;SDS011;40422;45.892;4.738;2023-03-01T13:13:26;20.73;;;14.32;;
54515;SDS011;40422;45.892;4.738;2023-03-01T13:15:53;23.30;;;14.93;;
54515;SDS011;40422;45.892;4.738;2023-03-01T13:20:46;26.45;;;16.25;;
54515;SDS011;40422;45.892;4.738;2023-03-01T13:23:23;25.83;;;16.23;;
54515;SDS011;40422;45.892;4.738;2023-03-01T13:36:09;21.90;;;13.65;;
54515;SDS011;40422;45.892;4.738;2023-03-01T13:41:17;27.85;;;16.45;;
54515;SDS011;40422;45.892;4.738;2023-03-01T13:44:11;23.27;;;15.02;;
54515;SDS011;40422;45.892;4.738;2023-03-01T13:46:37;23.67;;;15.40;;
54515;SDS011;40422;45.892;4.738;2023-03-01T13:49:03;28.88;;;16.83;;
54515;SDS011;40422;45.892;4.738;2023-03-01T13:51:29;24.58;;;14.98;;
54515;SDS011;40422;45.892;4.738;2023-03-01T13:53:55;24.27;;;14.43;;
54515;SDS011;40422;45.892;4.738;2023-03-01T13:56:27;27.90;;;16.05;;
54515;SDS011;40422;45.892;4.738;2023-03-01T14:01:41;25.88;;;16.05;;
54515;SDS011;40422;45.892;4.738;2023-03-01T14:04:18;23.42;;;15.75;;
54515;SDS011;40422;45.892;4.738;2023-03-01T14:06:47;25.63;;;14.60;;
54515;SDS011;40422;45.892;4.738;2023-03-01T14:09:17;20.50;;;13.27;;
54515;SDS011;40422;45.892;4.738;2023-03-01T14:20:14;26.33;;;15.20;;
54515;SDS011;40422;45.892;4.738;2023-03-01T14:22:41;24.70;;;15.10;;
54515;SDS011;40422;45.892;4.738;2023-03-01T14:25:19;22.85;;;13.93;;
54515;SDS011;40422;45.892;4.738;2023-03-01T14:28:00;22.52;;;14.45;;
54515;SDS011;40422;45.892;4.738;2023-03-01T14:30:31;23.23;;;14.90;;
54515;SDS011;40422;45.892;4.738;2023-03-01T14:33:26;24.10;;;15.02;;
54515;SDS011;40422;45.892;4.738;2023-03-01T14:36:04;21.00;;;13.05;;
54515;SDS011;40422;45.892;4.738;2023-03-01T14:41:12;20.90;;;13.13;;
54515;SDS011;40422;45.892;4.738;2023-03-01T14:43:45;20.92;;;13.02;;
54515;SDS011;40422;45.892;4.738;2023-03-01T14:46:19;25.13;;;14.50;;
54515;SDS011;40422;45.892;4.738;2023-03-01T14:48:49;25.70;;;15.52;;
54515;SDS011;40422;45.892;4.738;2023-03-01T14:51:17;25.63;;;14.75;;
54515;SDS011;40422;45.892;4.738;2023-03-01T14:53:42;25.75;;;15.48;;
54515;SDS011;40422;45.892;4.738;2023-03-01T14:56:12;25.20;;;15.30;;
54515;SDS011;40422;45.892;4.738;2023-03-01T14:58:39;24.35;;;14.68;;
54515;SDS011;40422;45.892;4.738;2023-03-01T15:01:05;25.58;;;14.10;;
54515;SDS011;40422;45.892;4.738;2023-03-01T15:03:46;21.67;;;13.52;;
54515;SDS011;40422;45.892;4.738;2023-03-01T15:06:18;23.77;;;14.20;;
54515;SDS011;40422;45.892;4.738;2023-03-01T15:08:46;25.90;;;14.63;;
54515;SDS011;40422;45.892;4.738;2023-03-01T15:13:48;21.73;;;12.82;;
54515;SDS011;40422;45.892;4.738;2023-03-01T15:16:17;23.77;;;14.95;;
54515;SDS011;40422;45.892;4.738;2023-03-01T15:18:52;23.75;;;14.38;;
54515;SDS011;40422;45.892;4.738;2023-03-01T15:21:24;21.80;;;13.27;;
54515;SDS011;40422;45.892;4.738;2023-03-01T15:24:00;21.95;;;13.25;;
54515;SDS011;40422;45.892;4.738;2023-03-01T15:26:31;27.13;;;15.55;;
54515;SDS011;40422;45.892;4.738;2023-03-01T15:29:01;22.38;;;12.75;;
54515;SDS011;40422;45.892;4.738;2023-03-01T15:31:29;24.70;;;13.57;;
54515;SDS011;40422;45.892;4.738;2023-03-01T15:36:47;20.05;;;11.77;;
54515;SDS011;40422;45.892;4.738;2023-03-01T15:39:25;23.27;;;14.30;;
54515;SDS011;40422;45.892;4.738;2023-03-01T15:41:55;23.70;;;13.88;;
54515;SDS011;40422;45.892;4.738;2023-03-01T15:44:29;21.88;;;14.13;;
54515;SDS011;40422;45.892;4.738;2023-03-01T15:46:57;22.00;;;12.55;;
54515;SDS011;40422;45.892;4.738;2023-03-01T15:49:26;24.83;;;14.45;;
54515;SDS011;40422;45.892;4.738;2023-03-01T15:52:14;24.20;;;13.95;;
54515;SDS011;40422;45.892;4.738;2023-03-01T15:54:54;21.35;;;12.93;;
54515;SDS011;40422;45.892;4.738;2023-03-01T15:57:21;24.27;;;14.55;;
54515;SDS011;40422;45.892;4.738;2023-03-01T15:59:47;24.77;;;14.55;;
54515;SDS011;40422;45.892;4.738;2023-03-01T16:02:12;24.48;;;13.80;;
54515;SDS011;40422;45.892;4.738;2023-03-01T16:04:38;24.30;;;13.88;;
54515;SDS011;40422;45.892;4.738;2023-03-01T16:07:04;23.52;;;13.98;;
54515;SDS011;40422;45.892;4.738;2023-03-01T16:09:30;25.73;;;13.13;;
54515;SDS011;40422;45.892;4.738;2023-03-01T16:11:57;25.15;;;14.93;;
54515;SDS011;40422;45.892;4.738;2023-03-01T16:14:22;24.45;;;14.93;;
54515;SDS011;40422;45.892;4.738;2023-03-01T16:16:48;25.45;;;13.10;;
54515;SDS011;40422;45.892;4.738;2023-03-01T16:19:14;24.38;;;15.07;;
54515;SDS011;40422;45.892;4.738;2023-03-01T16:21:40;24.60;;;14.73;;
54515;SDS011;40422;45.892;4.738;2023-03-01T16:24:08;23.55;;;14.43;;
54515;SDS011;40422;45.892;4.738;2023-03-01T16:26:34;24.00;;;14.25;;
54515;SDS011;40422;45.892;4.738;2023-03-01T16:29:01;24.77;;;14.65;;
54515;SDS011;40422;45.892;4.738;2023-03-01T16:31:26;24.42;;;14.38;;
54515;SDS011;40422;45.892;4.738;2023-03-01T16:33:54;24.85;;;16.27;;
54515;SDS011;40422;45.892;4.738;2023-03-01T16:36:21;25.25;;;14.00;;
54515;SDS011;40422;45.892;4.738;2023-03-01T16:38:49;27.52;;;14.45;;
54515;SDS011;40422;45.892;4.738;2023-03-01T16:41:16;26.70;;;15.35;;
54515;SDS011;40422;45.892;4.738;2023-03-01T16:43:43;22.50;;;12.95;;
54515;SDS011;40422;45.892;4.738;2023-03-01T16:46:11;26.77;;;16.17;;
54515;SDS011;40422;45.892;4.738;2023-03-01T16:48:38;24.92;;;15.05;;
54515;SDS011;40422;45.892;4.738;2023-03-01T16:51:04;23.33;;;13.85;;
54515;SDS011;40422;45.892;4.738;2023-03-01T16:53:32;24.48;;;14.45;;
54515;SDS011;40422;45.892;4.738;2023-03-01T16:56:00;26.42;;;15.13;;
54515;SDS011;40422;45.892;4.738;2023-03-01T16:58:27;25.83;;;15.32;;
54515;SDS011;40422;45.892;4.738;2023-03-01T17:00:54;26.95;;;15.52;;
54515;SDS011;40422;45.892;4.738;2023-03-01T17:03:21;25.83;;;14.80;;
54515;SDS011;40422;45.892;4.738;2023-03-01T17:05:47;24.27;;;13.80;;
54515;SDS011;40422;45.892;4.738;2023-03-01T17:08:13;25.55;;;14.00;;
54515;SDS011;40422;45.892;4.738;2023-03-01T17:10:38;24.65;;;14.25;;
54515;SDS011;40422;45.892;4.738;2023-03-01T17:13:04;24.60;;;14.75;;
54515;SDS011;40422;45.892;4.738;2023-03-01T17:15:30;24.20;;;14.48;;
54515;SDS011;40422;45.892;4.738;2023-03-01T17:17:55;24.48;;;14.15;;
54515;SDS011;40422;45.892;4.738;2023-03-01T17:20:21;25.23;;;14.60;;
54515;SDS011;40422;45.892;4.738;2023-03-01T17:22:46;25.20;;;14.02;;
54515;SDS011;40422;45.892;4.738;2023-03-01T17:25:12;25.02;;;13.52;;
54515;SDS011;40422;45.892;4.738;2023-03-01T17:27:38;26.25;;;14.40;;
54515;SDS011;40422;45.892;4.738;2023-03-01T17:30:05;22.65;;;13.50;;
54515;SDS011;40422;45.892;4.738;2023-03-01T17:32:33;23.70;;;13.75;;
54515;SDS011;40422;45.892;4.738;2023-03-01T17:34:59;24.85;;;13.93;;
54515;SDS011;40422;45.892;4.738;2023-03-01T17:37:25;24.92;;;14.45;;
54515;SDS011;40422;45.892;4.738;2023-03-01T17:39:50;24.02;;;14.00;;
54515;SDS011;40422;45.892;4.738;2023-03-01T17:42:16;24.52;;;14.02;;
54515;SDS011;40422;45.892;4.738;2023-03-01T17:44:41;25.05;;;15.13;;
54515;SDS011;40422;45.892;4.738;2023-03-01T17:47:08;24.33;;;14.02;;
54515;SDS011;40422;45.892;4.738;2023-03-01T17:49:34;25.23;;;14.25;;
54515;SDS011;40422;45.892;4.738;2023-03-01T17:51:59;27.75;;;15.18;;
54515;SDS011;40422;45.892;4.738;2023-03-01T17:54:25;26.73;;;14.57;;
54515;SDS011;40422;45.892;4.738;2023-03-01T17:56:51;25.77;;;15.40;;
54515;SDS011;40422;45.892;4.738;2023-03-01T17:59:17;25.80;;;15.38;;
54515;SDS011;40422;45.892;4.738;2023-03-01T18:01:43;26.05;;;13.90;;
54515;SDS011;40422;45.892;4.738;2023-03-01T18:04:09;25.58;;;14.90;;
54515;SDS011;40422;45.892;4.738;2023-03-01T18:06:35;27.70;;;15.07;;
54515;SDS011;40422;45.892;4.738;2023-03-01T18:09:02;25.27;;;14.80;;
54515;SDS011;40422;45.892;4.738;2023-03-01T18:11:28;24.67;;;14.65;;
54515;SDS011;40422;45.892;4.738;2023-03-01T18:13:53;24.52;;;14.43;;
54515;SDS011;40422;45.892;4.738;2023-03-01T18:16:21;26.83;;;15.13;;
54515;SDS011;40422;45.892;4.738;2023-03-01T18:18:51;26.85;;;14.68;;
54515;SDS011;40422;45.892;4.738;2023-03-01T18:21:17;27.90;;;15.48;;
54515;SDS011;40422;45.892;4.738;2023-03-01T18:23:45;23.50;;;13.68;;
54515;SDS011;40422;45.892;4.738;2023-03-01T18:26:11;28.98;;;15.50;;
54515;SDS011;40422;45.892;4.738;2023-03-01T18:28:41;25.20;;;14.23;;
54515;SDS011;40422;45.892;4.738;2023-03-01T18:31:11;26.23;;;14.27;;
54515;SDS011;40422;45.892;4.738;2023-03-01T18:33:38;25.55;;;14.30;;
54515;SDS011;40422;45.892;4.738;2023-03-01T18:36:05;26.23;;;14.75;;
54515;SDS011;40422;45.892;4.738;2023-03-01T18:38:39;26.92;;;15.82;;
54515;SDS011;40422;45.892;4.738;2023-03-01T18:41:05;24.70;;;13.93;;
54515;SDS011;40422;45.892;4.738;2023-03-01T18:43:30;27.52;;;14.55;;
54515;SDS011;40422;45.892;4.738;2023-03-01T18:45:57;24.08;;;13.88;;
54515;SDS011;40422;45.892;4.738;2023-03-01T18:48:22;25.58;;;14.05;;
54515;SDS011;40422;45.892;4.738;2023-03-01T18:50:49;26.25;;;15.63;;
54515;SDS011;40422;45.892;4.738;2023-03-01T18:53:14;25.55;;;14.85;;
54515;SDS011;40422;45.892;4.738;2023-03-01T18:55:40;24.42;;;13.30;;
54515;SDS011;40422;45.892;4.738;2023-03-01T18:58:05;23.50;;;13.25;;
54515;SDS011;40422;45.892;4.738;2023-03-01T19:00:31;25.83;;;14.98;;
54515;SDS011;40422;45.892;4.738;2023-03-01T19:02:58;26.50;;;15.02;;
54515;SDS011;40422;45.892;4.738;2023-03-01T19:05:25;26.33;;;14.82;;
54515;SDS011;40422;45.892;4.738;2023-03-01T19:07:51;26.52;;;14.38;;
54515;SDS011;40422;45.892;4.738;2023-03-01T19:10:17;28.17;;;14.63;;
54515;SDS011;40422;45.892;4.738;2023-03-01T19:12:43;24.50;;;14.07;;
54515;SDS011;40422;45.892;4.738;2023-03-01T19:15:09;26.17;;;14.90;;
54515;SDS011;40422;45.892;4.738;2023-03-01T19:17:35;25.50;;;14.13;;
54515;SDS011;40422;45.892;4.738;2023-03-01T19:20:01;27.45;;;14.75;;
54515;SDS011;40422;45.892;4.738;2023-03-01T19:22:27;25.25;;;14.85;;
54515;SDS011;40422;45.892;4.738;2023-03-01T19:24:52;26.50;;;15.73;;
54515;SDS011;40422;45.892;4.738;2023-03-01T19:27:18;26.73;;;15.25;;
54515;SDS011;40422;45.892;4.738;2023-03-01T19:29:44;25.00;;;14.77;;
54515;SDS011;40422;45.892;4.738;2023-03-01T19:32:09;25.25;;;14.35;;
54515;SDS011;40422;45.892;4.738;2023-03-01T19:34:35;25.42;;;14.57;;
54515;SDS011;40422;45.892;4.738;2023-03-01T19:37:02;25.73;;;15.30;;
54515;SDS011;40422;45.892;4.738;2023-03-01T19:39:28;26.67;;;15.20;;
54515;SDS011;40422;45.892;4.738;2023-03-01T19:41:54;24.27;;;13.63;;
54515;SDS011;40422;45.892;4.738;2023-03-01T19:44:20;26.48;;;14.27;;
54515;SDS011;40422;45.892;4.738;2023-03-01T19:46:50;26.20;;;14.77;;
54515;SDS011;40422;45.892;4.738;2023-03-01T19:49:17;23.23;;;14.00;;
54515;SDS011;40422;45.892;4.738;2023-03-01T19:51:43;27.67;;;15.55;;
54515;SDS011;40422;45.892;4.738;2023-03-01T19:54:09;28.33;;;15.65;;
54515;SDS011;40422;45.892;4.738;2023-03-01T19:56:36;26.58;;;14.75;;
54515;SDS011;40422;45.892;4.738;2023-03-01T19:59:02;25.38;;;14.18;;
54515;SDS011;40422;45.892;4.738;2023-03-01T20:01:30;26.83;;;15.10;;
54515;SDS011;40422;45.892;4.738;2023-03-01T20:03:58;27.92;;;15.57;;
54515;SDS011;40422;45.892;4.738;2023-03-01T20:06:24;28.00;;;14.88;;
54515;SDS011;40422;45.892;4.738;2023-03-01T20:08:50;25.98;;;14.98;;
54515;SDS011;40422;45.892;4.738;2023-03-01T20:11:16;25.00;;;15.00;;
54515;SDS011;40422;45.892;4.738;2023-03-01T20:13:42;28.80;;;14.93;;